Time;durP1;ratioP1;P1;durP2;ratioP2;P2;SDS_P1;SDS_P2;PMS_P1;PMS_P2;Temp;Humidity;BMP_temperature;BMP_pressure;BME280_temperature;BME280_humidity;BME280_pressure;Samples;Min_cycle;Max_cycle;Signal;HPM_P1;HPM_P2
2021/12/30 00:00:35;;;;;;;;;66.50;54.75;;;;;;;;5139580;27;12498;-74
2021/12/30 00:03:00;;;;;;;;;64.00;53.33;;;;;;;;5139435;27;12291;-77
2021/12/30 00:05:26;;;;;;;;;61.00;50.33;;;;;;;;5138852;27;10456;-74
2021/12/30 00:07:51;;;;;;;;;62.00;50.67;;;;;;;;5139999;27;8798;-75
2021/12/30 00:10:17;;;;;;;;;59.33;47.33;;;;;;;;5139582;27;11655;-75
2021/12/30 00:12:42;;;;;;;;;64.67;50.00;;;;;;;;5140053;27;13374;-74
2021/12/30 00:15:08;;;;;;;;;62.67;52.33;;;;;;;;5139657;27;13250;-75
2021/12/30 00:17:34;;;;;;;;;62.33;50.00;;;;;;;;5142928;27;11985;-74
2021/12/30 00:20:00;;;;;;;;;55.00;45.00;;;;;;;;5143201;27;10423;-74
2021/12/30 00:22:27;;;;;;;;;55.33;44.00;;;;;;;;5143554;27;12284;-74
2021/12/30 00:24:52;;;;;;;;;62.33;51.67;;;;;;;;5143090;27;9839;-74
2021/12/30 00:27:17;;;;;;;;;60.67;50.67;;;;;;;;5142832;27;14495;-74
2021/12/30 00:29:43;;;;;;;;;60.67;50.67;;;;;;;;5143028;27;10338;-74
2021/12/30 00:32:08;;;;;;;;;66.67;53.33;;;;;;;;5143109;27;8905;-74
2021/12/30 00:34:33;;;;;;;;;58.33;48.67;;;;;;;;5142612;27;11260;-74
2021/12/30 00:36:58;;;;;;;;;61.00;51.00;;;;;;;;5142965;27;13279;-74
2021/12/30 00:39:24;;;;;;;;;62.67;52.33;;;;;;;;5142639;27;13234;-73
2021/12/30 00:41:49;;;;;;;;;59.33;48.67;;;;;;;;5141808;27;11810;-74
2021/12/30 00:44:14;;;;;;;;;63.00;51.33;;;;;;;;5142256;27;13473;-72
2021/12/30 00:46:40;;;;;;;;;61.67;50.67;;;;;;;;5123595;27;13443;-73
2021/12/30 00:49:05;;;;;;;;;59.33;49.67;;;;;;;;5143008;27;11499;-73
2021/12/30 00:51:31;;;;;;;;;64.67;51.33;;;;;;;;5142924;27;12428;-74
2021/12/30 00:53:56;;;;;;;;;56.67;46.33;;;;;;;;5142597;27;13419;-74
2021/12/30 00:56:22;;;;;;;;;61.67;51.33;;;;;;;;5142394;27;10549;-73
2021/12/30 00:58:47;;;;;;;;;64.00;51.67;;;;;;;;5142608;27;10389;-74
2021/12/30 01:01:12;;;;;;;;;61.67;51.00;;;;;;;;5142816;27;13193;-73
2021/12/30 01:03:38;;;;;;;;;62.67;52.67;;;;;;;;5142197;27;11363;-73
2021/12/30 01:06:04;;;;;;;;;67.33;54.00;;;;;;;;5142336;27;12003;-74
2021/12/30 01:08:29;;;;;;;;;58.00;47.67;;;;;;;;5141971;27;11399;-74
2021/12/30 01:10:54;;;;;;;;;63.00;51.33;;;;;;;;5141780;27;14530;-74
2021/12/30 01:13:26;;;;;;;;;63.00;51.25;;;;;;;;5141941;27;13453;-74
2021/12/30 01:16:01;;;;;;;;;65.00;53.00;;;;;;;;5142771;27;8889;-73
2021/12/30 01:18:37;;;;;;;;;66.00;52.50;;;;;;;;5142597;27;11724;-74
2021/12/30 01:21:03;;;;;;;;;61.00;48.33;;;;;;;;5142347;27;11592;-73
2021/12/30 11:54:23;;;;;;;;;34.33;27.67;;;;;;;;5217797;27;76963;-75
2021/12/30 18:03:27;;;;;;;;;61.00;50.25;;;;;;;;5134097;27;2229245;-77
2021/12/30 18:05:52;;;;;;;;;62.75;51.00;;;;;;;;5199797;27;22634;-74
2021/12/30 18:08:17;;;;;;;;;65.33;51.00;;;;;;;;5199934;27;11659;-76
2021/12/30 18:10:43;;;;;;;;;57.00;48.00;;;;;;;;5200119;27;8774;-76
2021/12/30 18:13:09;;;;;;;;;62.00;49.33;;;;;;;;5199564;27;12349;-75
2021/12/30 18:15:35;;;;;;;;;66.33;49.00;;;;;;;;5199805;27;14695;-76
2021/12/30 18:18:01;;;;;;;;;61.00;49.00;;;;;;;;5198835;27;12012;-83
2021/12/30 18:20:27;;;;;;;;;63.67;49.33;;;;;;;;5196634;27;9378;-83
2021/12/30 18:22:55;;;;;;;;;63.00;49.00;;;;;;;;5179395;27;13570;-85
2021/12/30 18:25:20;;;;;;;;;63.67;50.67;;;;;;;;5198779;27;8845;-81
2021/12/30 18:27:46;;;;;;;;;65.67;53.00;;;;;;;;5178950;27;14181;-82
2021/12/30 18:30:11;;;;;;;;;60.33;50.33;;;;;;;;5197826;27;12717;-86
2021/12/30 18:32:38;;;;;;;;;61.33;51.33;;;;;;;;5195859;27;11365;-84
2021/12/30 18:35:03;;;;;;;;;64.00;49.67;;;;;;;;5180895;27;10822;-80
2021/12/30 18:37:29;;;;;;;;;65.33;50.33;;;;;;;;5198895;27;13432;-79
2021/12/30 18:39:54;;;;;;;;;62.00;47.67;;;;;;;;5199069;27;12205;-80
2021/12/30 18:42:20;;;;;;;;;53.33;38.67;;;;;;;;5199065;27;12419;-80
2021/12/30 18:44:45;;;;;;;;;66.00;54.00;;;;;;;;5198523;27;12713;-79
2021/12/30 18:47:10;;;;;;;;;65.33;52.67;;;;;;;;5199421;27;13242;-80
2021/12/30 18:49:36;;;;;;;;;64.33;51.00;;;;;;;;5198796;27;11670;-80
2021/12/30 18:52:03;;;;;;;;;60.00;49.00;;;;;;;;5199610;27;11761;-82
2021/12/30 18:54:28;;;;;;;;;59.67;49.33;;;;;;;;5180256;27;13650;-79
2021/12/30 18:56:54;;;;;;;;;58.00;48.00;;;;;;;;5199288;27;13396;-79
2021/12/30 18:59:19;;;;;;;;;61.67;48.00;;;;;;;;5199120;27;11765;-77
2021/12/30 19:01:45;;;;;;;;;61.00;48.33;;;;;;;;5198801;27;10165;-79
2021/12/30 19:04:10;;;;;;;;;62.67;50.67;;;;;;;;5198374;27;8785;-76
2021/12/30 19:06:35;;;;;;;;;60.33;48.00;;;;;;;;5199021;27;12193;-76
2021/12/30 19:09:02;;;;;;;;;55.33;46.33;;;;;;;;5199482;27;12225;-76
2021/12/30 19:11:28;;;;;;;;;63.33;43.33;;;;;;;;5198420;27;14709;-77
2021/12/30 19:13:53;;;;;;;;;66.00;51.67;;;;;;;;5189981;27;10364;-78
2021/12/30 19:16:21;;;;;;;;;59.00;45.00;;;;;;;;5184241;27;12255;-78
2021/12/30 19:18:46;;;;;;;;;64.33;49.67;;;;;;;;5184959;27;13947;-79
2021/12/30 19:21:13;;;;;;;;;69.25;57.25;;;;;;;;5184571;27;14839;-78
2021/12/30 19:23:40;;;;;;;;;65.67;52.67;;;;;;;;5184322;27;13591;-78
2021/12/30 19:26:06;;;;;;;;;63.33;49.33;;;;;;;;5165613;27;12625;-80
2021/12/30 19:28:32;;;;;;;;;57.00;46.67;;;;;;;;5184779;27;12555;-79
2021/12/30 19:30:57;;;;;;;;;58.00;48.00;;;;;;;;5184221;27;13503;-79
2021/12/30 19:33:23;;;;;;;;;55.67;44.00;;;;;;;;5183905;27;11432;-78
2021/12/30 19:35:52;;;;;;;;;60.33;49.00;;;;;;;;5184027;27;10381;-79
2021/12/30 19:38:17;;;;;;;;;61.33;50.33;;;;;;;;5184503;27;12288;-78
2021/12/30 19:40:43;;;;;;;;;46.33;41.33;;;;;;;;5182451;27;12364;-83
2021/12/30 19:43:09;;;;;;;;;54.67;44.00;;;;;;;;5180622;27;10372;-81
2021/12/30 19:45:35;;;;;;;;;55.33;45.00;;;;;;;;5160030;27;15717;-83
2021/12/30 19:48:03;;;;;;;;;58.00;47.00;;;;;;;;5179908;27;11857;-80
2021/12/30 19:50:29;;;;;;;;;58.00;47.00;;;;;;;;5179969;27;10487;-83
2021/12/30 19:52:54;;;;;;;;;61.00;46.33;;;;;;;;5180911;27;8818;-80
2021/12/30 19:55:21;;;;;;;;;59.00;47.33;;;;;;;;5179313;27;13245;-82
2021/12/30 19:57:48;;;;;;;;;59.67;47.67;;;;;;;;5181774;27;10654;-80
2021/12/30 20:00:15;;;;;;;;;64.00;50.00;;;;;;;;5181395;27;8778;-80
2021/12/30 20:02:41;;;;;;;;;64.67;51.00;;;;;;;;5182091;27;13711;-80
2021/12/30 20:05:07;;;;;;;;;53.67;45.00;;;;;;;;5182612;27;9672;-79
2021/12/30 20:07:32;;;;;;;;;61.67;45.67;;;;;;;;5181489;27;10733;-76
2021/12/30 20:09:58;;;;;;;;;62.33;48.00;;;;;;;;5180547;27;13397;-79
2021/12/30 20:12:24;;;;;;;;;60.67;48.67;;;;;;;;5175698;27;11387;-75
2021/12/30 20:14:49;;;;;;;;;57.33;45.67;;;;;;;;5180623;27;12698;-78
2021/12/30 20:17:15;;;;;;;;;65.00;48.33;;;;;;;;5182389;27;12324;-75
2021/12/30 20:19:40;;;;;;;;;57.33;44.00;;;;;;;;5181693;27;13229;-80
2021/12/30 20:22:05;;;;;;;;;57.00;45.00;;;;;;;;5181910;27;13251;-74
2021/12/30 20:24:32;;;;;;;;;53.00;44.33;;;;;;;;5162285;27;11786;-74
2021/12/30 20:27:02;;;;;;;;;62.33;47.67;;;;;;;;5180828;27;11810;-74
2021/12/30 20:29:28;;;;;;;;;60.67;50.67;;;;;;;;5174648;27;13304;-77
2021/12/30 20:31:56;;;;;;;;;59.33;47.33;;;;;;;;5169430;27;11655;-76
2021/12/30 20:34:21;;;;;;;;;59.33;47.67;;;;;;;;5161357;27;14643;-75
2021/12/30 20:36:46;;;;;;;;;65.33;48.67;;;;;;;;5161528;27;8780;-77
2021/12/30 20:39:12;;;;;;;;;59.00;48.00;;;;;;;;5161170;27;11724;-80
2021/12/30 20:41:41;;;;;;;;;58.33;47.67;;;;;;;;5164093;27;13337;-75
2021/12/30 20:44:07;;;;;;;;;63.00;50.33;;;;;;;;5171187;27;11633;-77
2021/12/30 20:46:33;;;;;;;;;67.00;52.33;;;;;;;;5161745;27;13359;-79
2021/12/30 20:48:59;;;;;;;;;62.67;48.00;;;;;;;;5162843;27;9158;-77
2021/12/30 20:51:24;;;;;;;;;65.67;50.67;;;;;;;;5162926;27;12329;-85
2021/12/30 20:53:52;;;;;;;;;51.33;40.67;;;;;;;;5183187;27;12426;-85
2021/12/30 20:56:19;;;;;;;;;69.67;51.00;;;;;;;;5183875;27;12327;-85
2021/12/30 20:58:45;;;;;;;;;63.33;50.33;;;;;;;;5183572;27;13331;-84
2021/12/30 21:01:11;;;;;;;;;59.33;49.33;;;;;;;;5163923;27;11373;-82
2021/12/30 21:03:36;;;;;;;;;63.00;52.33;;;;;;;;5162769;27;10275;-77
2021/12/30 21:06:02;;;;;;;;;62.00;52.33;;;;;;;;5163071;27;13361;-85
2021/12/30 21:08:27;;;;;;;;;65.00;51.00;;;;;;;;5169784;27;8790;-81
2021/12/30 21:10:53;;;;;;;;;63.67;51.33;;;;;;;;5163531;27;13883;-80
2021/12/30 21:13:19;;;;;;;;;64.00;54.33;;;;;;;;5182457;27;11505;-81
2021/12/30 21:15:45;;;;;;;;;66.33;54.67;;;;;;;;5182360;27;10581;-80
2021/12/30 21:18:12;;;;;;;;;62.67;49.67;;;;;;;;5182337;27;12008;-80
2021/12/30 21:20:37;;;;;;;;;62.00;47.00;;;;;;;;5181848;27;12025;-80
2021/12/30 21:23:04;;;;;;;;;60.67;47.33;;;;;;;;5181443;27;10612;-79
2021/12/30 21:25:30;;;;;;;;;57.67;45.00;;;;;;;;5181883;27;12008;-80
2021/12/30 21:27:55;;;;;;;;;61.00;47.00;;;;;;;;5181633;27;13937;-83
2021/12/30 21:30:23;;;;;;;;;51.00;43.33;;;;;;;;5162386;27;13923;-81
2021/12/30 21:32:48;;;;;;;;;49.00;44.00;;;;;;;;5181660;27;13570;-89
2021/12/30 21:35:15;;;;;;;;;50.00;43.00;;;;;;;;5181270;27;13359;-88
2021/12/30 21:37:40;;;;;;;;;46.33;42.33;;;;;;;;5162889;27;13120;-89
2021/12/30 21:40:06;;;;;;;;;53.00;46.00;;;;;;;;5162274;27;15042;-85
2021/12/30 21:42:34;;;;;;;;;55.33;46.00;;;;;;;;5188254;27;13240;-86
2021/12/30 21:45:00;;;;;;;;;50.33;42.00;;;;;;;;5186584;27;9319;-86
2021/12/30 21:47:26;;;;;;;;;54.33;43.00;;;;;;;;5199283;27;8788;-83
2021/12/30 21:49:51;;;;;;;;;58.33;45.00;;;;;;;;5192519;27;9486;-84
2021/12/30 21:52:19;;;;;;;;;53.33;42.33;;;;;;;;5184364;27;8806;-88
2021/12/30 21:55:03;;;;;;;;;53.00;42.33;;;;;;;;5177528;27;11677;-81
2021/12/30 21:57:28;;;;;;;;;53.67;44.33;;;;;;;;5183003;27;8913;-83
2021/12/30 21:59:53;;;;;;;;;46.67;39.33;;;;;;;;5181828;27;9572;-82
2021/12/30 22:02:19;;;;;;;;;56.00;45.33;;;;;;;;5182129;27;10647;-81
2021/12/30 22:04:44;;;;;;;;;50.67;43.67;;;;;;;;5163403;27;12580;-81
2021/12/30 22:07:09;;;;;;;;;54.00;42.67;;;;;;;;5181395;27;10957;-81
2021/12/30 22:09:35;;;;;;;;;53.33;45.67;;;;;;;;5182013;27;10357;-81
2021/12/30 22:12:02;;;;;;;;;53.67;44.33;;;;;;;;5182101;27;10374;-83
2021/12/30 22:14:27;;;;;;;;;61.00;48.00;;;;;;;;5182336;27;10493;-82
2021/12/30 22:16:53;;;;;;;;;62.33;50.00;;;;;;;;5182221;27;14387;-83
2021/12/30 22:19:18;;;;;;;;;58.33;47.00;;;;;;;;5162352;27;11713;-82
2021/12/30 22:21:44;;;;;;;;;54.00;44.67;;;;;;;;5180561;27;10424;-82
2021/12/30 22:24:10;;;;;;;;;51.33;43.67;;;;;;;;5182486;27;11719;-83
2021/12/30 22:26:38;;;;;;;;;59.00;43.00;;;;;;;;5182143;27;11495;-79
2021/12/30 22:29:03;;;;;;;;;50.67;41.67;;;;;;;;5181639;27;11501;-78
2021/12/30 22:31:28;;;;;;;;;50.00;43.67;;;;;;;;5180673;27;11355;-79
2021/12/30 22:33:56;;;;;;;;;57.00;44.67;;;;;;;;5181744;27;9538;-79
2021/12/30 22:36:22;;;;;;;;;51.67;41.33;;;;;;;;5181024;27;8904;-79
2021/12/30 22:38:48;;;;;;;;;50.67;42.00;;;;;;;;5181629;27;11489;-79
2021/12/30 22:41:13;;;;;;;;;36.67;36.00;;;;;;;;5181416;27;11373;-79
2021/12/30 22:43:38;;;;;;;;;43.00;42.00;;;;;;;;5181195;27;10356;-78
2021/12/30 22:46:08;;;;;;;;;48.67;42.00;;;;;;;;5182163;27;12861;-79
2021/12/30 22:48:35;;;;;;;;;55.00;43.33;;;;;;;;5182859;27;9222;-78
2021/12/30 22:51:00;;;;;;;;;53.00;42.67;;;;;;;;5166392;27;13997;-78
2021/12/30 22:53:25;;;;;;;;;47.67;42.00;;;;;;;;5185283;27;11581;-79
2021/12/30 22:55:51;;;;;;;;;53.33;42.33;;;;;;;;5185586;27;15047;-79
2021/12/30 22:58:16;;;;;;;;;51.00;41.67;;;;;;;;5184715;27;13228;-80
2021/12/30 23:00:49;;;;;;;;;53.33;42.00;;;;;;;;5166020;27;13298;-80
2021/12/30 23:03:15;;;;;;;;;46.33;40.00;;;;;;;;5184935;27;11581;-79
2021/12/30 23:05:40;;;;;;;;;51.00;42.67;;;;;;;;5178792;27;10623;-80
2021/12/30 23:08:06;;;;;;;;;51.33;43.33;;;;;;;;5172773;27;13308;-78
2021/12/30 23:10:31;;;;;;;;;45.33;38.00;;;;;;;;5162009;27;10415;-79
2021/12/30 23:12:56;;;;;;;;;42.33;30.67;;;;;;;;5163115;27;13888;-79
2021/12/30 23:15:22;;;;;;;;;37.33;34.33;;;;;;;;5164166;27;13081;-81
2021/12/30 23:17:47;;;;;;;;;45.33;38.00;;;;;;;;5145204;27;16321;-81
2021/12/30 23:20:16;;;;;;;;;40.00;36.00;;;;;;;;5162422;27;14397;-81
2021/12/30 23:22:42;;;;;;;;;36.67;32.67;;;;;;;;5164683;27;10477;-82
2021/12/30 23:25:07;;;;;;;;;38.67;38.00;;;;;;;;5164498;27;13834;-83
2021/12/30 23:27:32;;;;;;;;;44.67;41.67;;;;;;;;5163850;27;11385;-83
2021/12/30 23:29:58;;;;;;;;;43.33;39.00;;;;;;;;5163486;27;13237;-81
2021/12/30 23:32:23;;;;;;;;;40.67;34.67;;;;;;;;5163295;27;12277;-82
2021/12/30 23:34:48;;;;;;;;;51.33;41.33;;;;;;;;5163794;27;11527;-83
2021/12/30 23:37:14;;;;;;;;;53.33;44.00;;;;;;;;5163937;27;13462;-81
2021/12/30 23:39:39;;;;;;;;;48.33;43.33;;;;;;;;5163605;27;11450;-81
2021/12/30 23:42:04;;;;;;;;;49.67;38.67;;;;;;;;5163481;27;13790;-80
2021/12/30 23:44:30;;;;;;;;;43.67;40.00;;;;;;;;5164145;27;14036;-79
2021/12/30 23:46:55;;;;;;;;;33.33;32.00;;;;;;;;5163954;27;12484;-79
2021/12/30 23:49:20;;;;;;;;;53.67;44.33;;;;;;;;5163995;27;12245;-79
2021/12/30 23:51:46;;;;;;;;;56.00;38.67;;;;;;;;5163954;27;13242;-80
2021/12/30 23:54:11;;;;;;;;;51.00;39.33;;;;;;;;5163941;27;12503;-81
2021/12/30 23:56:36;;;;;;;;;38.67;31.67;;;;;;;;5164008;27;11887;-77
2021/12/30 23:59:03;;;;;;;;;36.33;35.00;;;;;;;;5163433;27;13377;-82
